createdAt,value
2019-06-01T00:00:11.245Z,1017.95
2019-06-01T00:01:06.671Z,1017.9
2019-06-01T00:02:06.692Z,1017.88
2019-06-01T00:03:06.716Z,1017.9
2019-06-01T00:04:06.738Z,1017.87
2019-06-01T00:05:06.763Z,1017.88
2019-06-01T00:06:06.787Z,1017.87
2019-06-01T00:07:06.808Z,1017.91
2019-06-01T00:08:06.832Z,1017.89
2019-06-01T00:09:06.855Z,1017.92
2019-06-01T00:10:06.880Z,1017.92
2019-06-01T00:11:06.901Z,1017.97
2019-06-01T00:12:06.925Z,1017.94
2019-06-01T00:13:06.961Z,1017.93
2019-06-01T00:14:06.976Z,1017.93
2019-06-01T00:15:06.992Z,1017.92
2019-06-01T00:16:07.014Z,1017.91
2019-06-01T00:17:07.038Z,1017.93
2019-06-01T00:18:07.061Z,1017.94
2019-06-01T00:19:07.085Z,1017.93
2019-06-01T00:20:07.107Z,1017.92
2019-06-01T00:21:07.134Z,1017.95
2019-06-01T00:22:07.154Z,1017.93
2019-06-01T00:23:07.182Z,1017.92
2019-06-01T00:24:07.202Z,1017.91
2019-06-01T00:25:07.224Z,1017.89
2019-06-01T00:26:07.247Z,1017.87
2019-06-01T00:27:07.270Z,1017.9
2019-06-01T00:29:07.328Z,1017.87
2019-06-01T00:30:07.342Z,1017.9
2019-06-01T00:31:07.363Z,1017.88
2019-06-01T00:32:07.387Z,1017.86
2019-06-01T00:33:07.409Z,1017.88
2019-06-01T00:34:07.433Z,1017.89
2019-06-01T00:35:07.463Z,1017.86
2019-06-01T00:36:07.486Z,1017.87
2019-06-01T00:37:07.503Z,1017.86
2019-06-01T00:38:07.526Z,1017.84
2019-06-01T00:39:07.549Z,1017.84
2019-06-01T00:40:07.572Z,1017.84
2019-06-01T00:41:07.596Z,1017.83
2019-06-01T00:42:07.617Z,1017.82
2019-06-01T00:43:07.641Z,1017.82
2019-06-01T00:45:07.688Z,1017.8
2019-06-01T00:46:07.710Z,1017.78
2019-06-01T00:47:07.734Z,1017.8
2019-06-01T00:48:07.757Z,1017.83
2019-06-01T00:49:07.779Z,1017.82
2019-06-01T00:50:07.803Z,1017.8
2019-06-01T00:51:07.826Z,1017.76
2019-06-01T00:52:07.850Z,1017.76
2019-06-01T00:53:07.875Z,1017.79
2019-06-01T00:54:07.900Z,1017.78
2019-06-01T00:55:07.924Z,1017.76
2019-06-01T00:56:07.945Z,1017.77
2019-06-01T00:57:07.968Z,1017.78
2019-06-01T00:58:07.993Z,1017.81
2019-06-01T00:59:08.015Z,1017.78
2019-06-01T01:01:08.060Z,1017.77
2019-06-01T01:02:08.084Z,1017.78
2019-06-01T01:03:08.114Z,1017.8
2019-06-01T01:04:08.130Z,1017.81
2019-06-01T01:05:08.154Z,1017.81
2019-06-01T01:06:08.177Z,1017.82
2019-06-01T01:07:08.201Z,1017.82
2019-06-01T01:08:08.222Z,1017.8
2019-06-01T01:09:08.247Z,1017.82
2019-06-01T01:10:08.270Z,1017.83
2019-06-01T01:11:08.291Z,1017.82
2019-06-01T01:12:08.314Z,1017.82
2019-06-01T01:13:08.338Z,1017.84
2019-06-01T01:14:08.362Z,1017.84
2019-06-01T01:15:08.406Z,1017.86
2019-06-01T01:17:08.430Z,1017.9
2019-06-01T01:18:08.461Z,1017.87
2019-06-01T01:19:08.475Z,1017.9
2019-06-01T01:20:08.499Z,1017.89
2019-06-01T01:21:08.524Z,1017.92
2019-06-01T01:22:08.545Z,1017.9
2019-06-01T01:23:08.581Z,1017.9
2019-06-01T01:24:08.597Z,1017.89
2019-06-01T01:25:08.616Z,1017.87
2019-06-01T01:26:08.638Z,1017.86
2019-06-01T01:27:08.660Z,1017.81
2019-06-01T01:28:08.683Z,1017.84
2019-06-01T01:29:08.706Z,1017.82
2019-06-01T01:30:08.734Z,1017.79
2019-06-01T01:32:08.778Z,1017.77
2019-06-01T01:33:08.798Z,1017.75
2019-06-01T01:34:08.821Z,1017.75
2019-06-01T01:35:08.845Z,1017.76
2019-06-01T01:36:08.870Z,1017.76
2019-06-01T01:37:08.891Z,1017.77
2019-06-01T01:38:08.913Z,1017.78
2019-06-01T01:39:08.945Z,1017.76
2019-06-01T01:40:08.965Z,1017.74
2019-06-01T01:41:08.981Z,1017.8
2019-06-01T01:42:09.005Z,1017.75
2019-06-01T01:43:09.029Z,1017.8
2019-06-01T01:44:09.050Z,1017.75
2019-06-01T01:45:09.073Z,1017.78
2019-06-01T01:46:09.096Z,1017.76
2019-06-01T01:47:09.120Z,1017.81
2019-06-01T01:48:09.148Z,1017.77
2019-06-01T01:49:09.165Z,1017.74
2019-06-01T01:50:09.189Z,1017.77
2019-06-01T01:51:09.210Z,1017.76
2019-06-01T01:52:09.234Z,1017.72
2019-06-01T01:53:09.256Z,1017.75
2019-06-01T01:54:09.279Z,1017.74
2019-06-01T01:55:09.302Z,1017.75
2019-06-01T01:56:09.325Z,1017.71
2019-06-01T01:57:09.348Z,1017.71
2019-06-01T01:58:09.370Z,1017.7
2019-06-01T01:59:09.394Z,1017.66
2019-06-01T02:00:09.417Z,1017.68
2019-06-01T02:01:21.163Z,1017.67
2019-06-01T02:02:09.462Z,1017.66
2019-06-01T02:04:09.512Z,1017.66
2019-06-01T02:05:09.530Z,1017.63
2019-06-01T02:06:09.556Z,1017.66
2019-06-01T02:07:09.576Z,1017.65
2019-06-01T02:08:09.599Z,1017.62
2019-06-01T02:09:09.625Z,1017.65
2019-06-01T02:10:09.644Z,1017.63
2019-06-01T02:11:09.667Z,1017.6
2019-06-01T02:12:09.690Z,1017.58
2019-06-01T02:13:09.712Z,1017.59
2019-06-01T02:14:09.735Z,1017.59
2019-06-01T02:15:09.758Z,1017.54
2019-06-01T02:16:09.784Z,1017.55
2019-06-01T02:17:09.808Z,1017.5
2019-06-01T02:18:09.826Z,1017.49
2019-06-01T02:20:09.873Z,1017.51
2019-06-01T02:21:09.893Z,1017.55
2019-06-01T02:22:09.920Z,1017.55
2019-06-01T02:23:09.940Z,1017.52
2019-06-01T02:24:09.962Z,1017.54
2019-06-01T02:25:09.985Z,1017.52
2019-06-01T02:26:10.007Z,1017.53
2019-06-01T02:27:10.031Z,1017.52
2019-06-01T02:28:10.053Z,1017.5
2019-06-01T02:29:10.076Z,1017.52
2019-06-01T02:30:10.100Z,1017.51
2019-06-01T02:31:10.126Z,1017.44
2019-06-01T02:32:10.143Z,1017.47
2019-06-01T02:33:10.167Z,1017.47
2019-06-01T02:34:10.190Z,1017.46
2019-06-01T02:36:10.235Z,1017.42
2019-06-01T02:37:10.260Z,1017.44
2019-06-01T02:38:10.282Z,1017.44
2019-06-01T02:39:10.301Z,1017.41
2019-06-01T02:40:10.322Z,1017.4
2019-06-01T02:41:10.346Z,1017.39
2019-06-01T02:42:10.381Z,1017.38
2019-06-01T02:43:10.388Z,1017.37
2019-06-01T02:44:10.411Z,1017.38
2019-06-01T02:45:10.435Z,1017.41
2019-06-01T02:46:10.457Z,1017.4
2019-06-01T02:47:10.479Z,1017.39
2019-06-01T02:48:10.503Z,1017.38
2019-06-01T02:49:10.526Z,1017.39
2019-06-01T02:50:10.548Z,1017.38
2019-06-01T02:52:10.593Z,1017.37
2019-06-01T02:53:10.615Z,1017.42
2019-06-01T02:54:10.637Z,1017.38
2019-06-01T02:55:10.660Z,1017.38
2019-06-01T02:56:10.683Z,1017.35
2019-06-01T02:57:10.707Z,1017.39
2019-06-01T02:58:10.730Z,1017.39
2019-06-01T02:59:10.754Z,1017.36
2019-06-01T03:00:10.774Z,1017.39
2019-06-01T03:01:10.796Z,1017.35
2019-06-01T03:02:14.084Z,1017.37
2019-06-01T03:03:10.841Z,1017.37
2019-06-01T03:04:10.866Z,1017.38
2019-06-01T03:05:10.887Z,1017.39
2019-06-01T03:07:10.932Z,1017.42
2019-06-01T03:08:10.954Z,1017.41
2019-06-01T03:09:10.977Z,1017.42
2019-06-01T03:10:11.000Z,1017.41
2019-06-01T03:11:11.023Z,1017.41
2019-06-01T03:12:11.048Z,1017.43
2019-06-01T03:13:11.067Z,1017.41
2019-06-01T03:14:11.091Z,1017.4
2019-06-01T03:15:11.112Z,1017.37
2019-06-01T03:16:11.135Z,1017.41
2019-06-01T03:17:12.112Z,1017.35
2019-06-01T03:18:11.809Z,1017.32
2019-06-01T03:19:12.103Z,1017.33
2019-06-01T03:20:11.864Z,1017.34
2019-06-01T03:21:11.963Z,1017.32
2019-06-01T03:22:12.089Z,1017.31
2019-06-01T03:23:12.060Z,1017.31
2019-06-01T03:24:13.012Z,1017.31
2019-06-01T03:25:12.308Z,1017.31
2019-06-01T03:26:12.418Z,1017.29
2019-06-01T03:27:12.424Z,1017.3
2019-06-01T03:28:12.402Z,1017.3
2019-06-01T03:29:12.575Z,1017.3
2019-06-01T03:30:14.774Z,1017.32
2019-06-01T03:31:13.154Z,1017.31
2019-06-01T03:32:28.818Z,1017.3
2019-06-01T03:33:12.008Z,1017.32
2019-06-01T03:34:11.695Z,1017.3
2019-06-01T03:35:11.565Z,1017.32
2019-06-01T03:36:11.594Z,1017.3
2019-06-01T03:37:11.611Z,1017.31
2019-06-01T03:39:12.864Z,1017.31
2019-06-01T03:40:23.025Z,1017.29
2019-06-01T03:41:12.367Z,1017.28
2019-06-01T03:42:11.833Z,1017.3
2019-06-01T03:43:11.748Z,1017.3
2019-06-01T03:44:12.936Z,1017.3
2019-06-01T03:45:12.469Z,1017.3
2019-06-01T03:46:13.007Z,1017.28
2019-06-01T03:47:12.036Z,1017.33
2019-06-01T03:48:12.973Z,1017.33
2019-06-01T03:49:12.054Z,1017.3
2019-06-01T03:50:13.149Z,1017.32
2019-06-01T03:51:12.043Z,1017.34
2019-06-01T03:52:13.040Z,1017.31
2019-06-01T03:53:12.209Z,1017.36
2019-06-01T03:55:12.101Z,1017.4
2019-06-01T03:56:12.045Z,1017.4
2019-06-01T03:57:12.067Z,1017.39
2019-06-01T03:58:12.091Z,1017.43
2019-06-01T03:59:12.113Z,1017.44
2019-06-01T04:00:12.151Z,1017.45
2019-06-01T04:01:12.159Z,1017.43
2019-06-01T04:02:12.183Z,1017.45
2019-06-01T04:03:12.206Z,1017.46
2019-06-01T04:04:12.228Z,1017.43
2019-06-01T04:05:12.251Z,1017.4
2019-06-01T04:06:12.275Z,1017.4
2019-06-01T04:07:12.473Z,1017.42
2019-06-01T04:08:12.321Z,1017.43
2019-06-01T04:09:12.345Z,1017.43
2019-06-01T04:11:12.391Z,1017.59
2019-06-01T04:12:12.413Z,1017.61
2019-06-01T04:13:12.436Z,1017.65
2019-06-01T04:14:12.459Z,1017.59
2019-06-01T04:15:15.153Z,1017.58
2019-06-01T04:16:12.510Z,1017.51
2019-06-01T04:17:12.531Z,1017.5
2019-06-01T04:18:13.871Z,1017.51
2019-06-01T04:19:12.578Z,1017.49
2019-06-01T04:20:12.607Z,1017.45
2019-06-01T04:21:12.625Z,1017.48
2019-06-01T04:22:12.649Z,1017.48
2019-06-01T04:23:12.673Z,1017.49
2019-06-01T04:24:12.697Z,1017.57
2019-06-01T04:25:12.719Z,1017.66
2019-06-01T04:27:12.768Z,1017.7
2019-06-01T04:28:12.801Z,1017.69
2019-06-01T04:29:12.816Z,1017.77
2019-06-01T04:30:13.683Z,1017.75
2019-06-01T04:31:12.934Z,1017.79
2019-06-01T04:32:12.963Z,1017.73
2019-06-01T04:33:13.239Z,1017.74
2019-06-01T04:34:13.143Z,1017.72
2019-06-01T04:35:13.247Z,1017.7
2019-06-01T04:36:13.153Z,1017.77
2019-06-01T04:37:13.330Z,1017.75
2019-06-01T04:38:13.378Z,1017.72
2019-06-01T04:39:13.741Z,1017.74
2019-06-01T04:40:13.646Z,1017.77
2019-06-01T04:42:13.899Z,1017.75
2019-06-01T04:43:14.153Z,1017.77
2019-06-01T04:44:14.302Z,1017.83
2019-06-01T04:45:14.365Z,1017.83
2019-06-01T04:46:14.365Z,1017.86
2019-06-01T04:47:14.478Z,1017.87
2019-06-01T04:48:14.574Z,1017.93
2019-06-01T04:49:13.704Z,1017.94
2019-06-01T04:50:13.357Z,1017.96
2019-06-01T04:51:13.542Z,1018
2019-06-01T04:52:13.575Z,1018.02
2019-06-01T04:53:13.551Z,1018
2019-06-01T04:54:14.338Z,1018.04
2019-06-01T04:55:13.498Z,1018.02
2019-06-01T04:56:13.528Z,1018.06
2019-06-01T04:57:13.556Z,1018.08
2019-06-01T04:58:13.584Z,1018.07
2019-06-01T04:59:13.614Z,1018.07
2019-06-01T05:00:25.599Z,1018.12
2019-06-01T05:01:13.673Z,1018.18
2019-06-01T05:02:13.703Z,1018.15
2019-06-01T05:03:13.733Z,1018.19
2019-06-01T05:04:13.763Z,1018.21
2019-06-01T05:05:13.793Z,1018.28
2019-06-01T05:06:13.824Z,1018.3
2019-06-01T05:07:13.855Z,1018.3
2019-06-01T05:08:13.987Z,1018.32
2019-06-01T05:09:13.916Z,1018.24
2019-06-01T05:10:14.575Z,1018.23
2019-06-01T05:11:13.983Z,1018.33
2019-06-01T05:12:14.009Z,1018.36
2019-06-01T05:14:14.071Z,1018.37
2019-06-01T05:15:14.103Z,1018.42
2019-06-01T05:16:14.814Z,1018.43
2019-06-01T05:17:15.019Z,1018.41
2019-06-01T05:18:14.298Z,1018.36
2019-06-01T05:19:14.354Z,1018.28
2019-06-01T05:20:14.676Z,1018.35
2019-06-01T05:21:15.127Z,1018.46
2019-06-01T05:22:14.589Z,1018.43
2019-06-01T05:23:14.861Z,1018.46
2019-06-01T05:24:14.762Z,1018.39
2019-06-01T05:25:15.296Z,1018.43
2019-06-01T05:26:15.064Z,1018.42
2019-06-01T05:27:15.226Z,1018.33
2019-06-01T05:28:15.280Z,1018.37
2019-06-01T05:30:15.653Z,1018.46
2019-06-01T05:31:21.542Z,1018.43
2019-06-01T05:32:14.699Z,1018.23
2019-06-01T05:33:29.055Z,1018.22
2019-06-01T05:34:15.855Z,1018.11
2019-06-01T05:35:15.811Z,1018.1
2019-06-01T05:36:16.150Z,1018.04
2019-06-01T05:37:14.822Z,1018
2019-06-01T05:38:14.846Z,1017.97
2019-06-01T05:39:14.887Z,1018.03
2019-06-01T05:40:14.912Z,1017.99
2019-06-01T05:41:15.056Z,1018
2019-06-01T05:42:14.975Z,1018
2019-06-01T05:43:17.912Z,1018.01
2019-06-01T05:44:15.050Z,1018.02
2019-06-01T05:46:16.059Z,1017.99
2019-06-01T05:47:16.158Z,1017.98
2019-06-01T05:48:20.522Z,1017.97
2019-06-01T05:49:16.222Z,1017.98
2019-06-01T05:50:16.344Z,1018.03
2019-06-01T05:51:17.224Z,1018.01
2019-06-01T05:52:16.589Z,1017.98
2019-06-01T05:53:16.562Z,1017.95
2019-06-01T05:54:16.630Z,1017.99
2019-06-01T05:55:16.648Z,1017.94
2019-06-01T05:56:16.746Z,1017.95
2019-06-01T05:57:15.430Z,1017.94
2019-06-01T05:58:15.452Z,1017.97
2019-06-01T05:59:15.962Z,1017.92
2019-06-01T06:00:15.507Z,1017.91
2019-06-01T06:02:15.563Z,1017.89
2019-06-01T06:03:20.108Z,1017.87
2019-06-01T06:04:15.619Z,1017.89
2019-06-01T06:05:16.637Z,1017.88
2019-06-01T06:06:15.840Z,1017.88
2019-06-01T06:07:16.815Z,1017.92
2019-06-01T06:08:16.004Z,1017.95
2019-06-01T06:09:16.994Z,1017.93
2019-06-01T06:10:16.061Z,1017.9
2019-06-01T06:11:16.698Z,1017.94
2019-06-01T06:12:17.177Z,1017.95
2019-06-01T06:13:15.866Z,1017.93
2019-06-01T06:14:15.901Z,1017.92
2019-06-01T06:15:15.922Z,1017.88
2019-06-01T06:17:17.483Z,1017.97
2019-06-01T06:18:16.002Z,1018.15
2019-06-01T06:19:19.052Z,1018.19
2019-06-01T06:20:16.056Z,1017.96
2019-06-01T06:21:16.122Z,1017.93
2019-06-01T06:22:16.199Z,1017.92
2019-06-01T06:23:16.423Z,1017.96
2019-06-01T06:24:16.366Z,1017.94
2019-06-01T06:25:16.193Z,1017.99
2019-06-01T06:26:17.213Z,1017.93
2019-06-01T06:27:16.446Z,1017.93
2019-06-01T06:28:16.651Z,1017.97
2019-06-01T06:29:16.884Z,1017.97
2019-06-01T06:30:16.971Z,1017.97
2019-06-01T06:31:16.995Z,1017.98
2019-06-01T06:32:17.189Z,1018.01
2019-06-01T06:33:17.338Z,1018
2019-06-01T06:34:17.431Z,1017.96
2019-06-01T06:35:17.395Z,1018.02
2019-06-01T06:36:17.741Z,1017.95
2019-06-01T06:37:17.567Z,1017.95
2019-06-01T06:38:17.690Z,1017.98
2019-06-01T06:39:17.803Z,1017.99
2019-06-01T06:40:16.597Z,1017.97
2019-06-01T06:41:16.624Z,1017.95
2019-06-01T06:42:16.658Z,1017.95
2019-06-01T06:43:22.678Z,1018
2019-06-01T06:44:16.712Z,1017.96
2019-06-01T06:45:16.739Z,1018
2019-06-01T06:46:16.758Z,1018
2019-06-01T06:47:16.785Z,1018.02
2019-06-01T06:49:17.092Z,1018.14
2019-06-01T06:50:17.479Z,1018.42
2019-06-01T06:51:17.246Z,1018.45
2019-06-01T06:52:17.426Z,1018.6
2019-06-01T06:53:28.077Z,1018.68
2019-06-01T06:54:17.689Z,1018.7
2019-06-01T06:55:17.776Z,1018.67
2019-06-01T06:56:17.865Z,1018.7
2019-06-01T06:57:17.965Z,1018.2
2019-06-01T06:58:18.630Z,1018.23
2019-06-01T06:59:18.293Z,1018.44
2019-06-01T07:00:18.421Z,1018.15
2019-06-01T07:01:17.184Z,1018.15
2019-06-01T07:02:17.204Z,1018.11
2019-06-01T07:03:17.239Z,1018.13
2019-06-01T07:05:17.293Z,1018.19
2019-06-01T07:06:17.394Z,1018.98
2019-06-01T07:07:17.631Z,1018.93
2019-06-01T07:08:17.659Z,1018.86
2019-06-01T07:09:17.833Z,1019.03
2019-06-01T07:10:17.971Z,1019.01
2019-06-01T07:11:17.475Z,1019.2
2019-06-01T07:12:17.498Z,1019.21
2019-06-01T07:13:17.538Z,1019.2
2019-06-01T07:14:17.560Z,1019.16
2019-06-01T07:15:17.592Z,1019.13
2019-06-01T07:16:17.630Z,1019.16
2019-06-01T07:17:17.656Z,1018.7
2019-06-01T07:18:17.689Z,1019.29
2019-06-01T07:19:17.721Z,1018.63
2019-06-01T07:21:17.810Z,1019.36
2019-06-01T07:22:17.821Z,1019.37
2019-06-01T07:23:17.855Z,1019.35
2019-06-01T07:24:17.928Z,1019.42
2019-06-01T07:25:17.925Z,1019.45
2019-06-01T07:26:17.960Z,1019.38
2019-06-01T07:27:17.999Z,1019.44
2019-06-01T07:28:18.035Z,1019.33
2019-06-01T07:29:18.080Z,1019.36
2019-06-01T07:30:18.098Z,1019.47
2019-06-01T07:31:18.121Z,1019.46
2019-06-01T07:32:18.156Z,1018.78
2019-06-01T07:33:18.191Z,1019.53
2019-06-01T07:34:30.492Z,1018.63
2019-06-01T07:35:18.259Z,1018.79
2019-06-01T07:37:18.329Z,1019.6
2019-06-01T07:38:18.363Z,1019.52
2019-06-01T07:39:18.396Z,1019.48
2019-06-01T07:40:18.432Z,1019.41
2019-06-01T07:41:18.471Z,1018.98
2019-06-01T07:42:18.515Z,1018.26
2019-06-01T07:43:18.534Z,1018.18
2019-06-01T07:44:18.569Z,1019.27
2019-06-01T07:45:18.603Z,1018.94
2019-06-01T07:46:18.644Z,1018.2
2019-06-01T07:47:18.672Z,1018.23
2019-06-01T07:48:18.726Z,1018.15
2019-06-01T07:49:18.742Z,1019.03
2019-06-01T07:50:19.805Z,1018.93
2019-06-01T07:52:20.137Z,1018.93
2019-06-01T07:53:18.877Z,1018.9
2019-06-01T07:54:20.138Z,1018.76
2019-06-01T07:55:18.946Z,1018.97
2019-06-01T07:56:20.310Z,1019.04
2019-06-01T07:57:19.014Z,1018.21
2019-06-01T07:58:20.651Z,1018.2
2019-06-01T07:59:19.086Z,1018.64
2019-06-01T08:00:19.116Z,1018.27
2019-06-01T08:01:19.151Z,1018.4
2019-06-01T08:02:19.189Z,1018.94
2019-06-01T08:03:19.219Z,1018.92
2019-06-01T08:04:19.259Z,1018.89
2019-06-01T08:05:19.297Z,1018.65
2019-06-01T08:06:19.321Z,1018.87
2019-06-01T08:07:19.363Z,1018.81
2019-06-01T08:08:19.389Z,1018.62
2019-06-01T08:09:19.424Z,1018.26
2019-06-01T08:10:19.457Z,1018.8
2019-06-01T08:11:19.490Z,1018.69
2019-06-01T08:12:19.531Z,1018.76
2019-06-01T08:13:19.566Z,1018.69
2019-06-01T08:14:19.594Z,1018.6
2019-06-01T08:15:19.628Z,1018.68
2019-06-01T08:16:19.663Z,1018.7
2019-06-01T08:17:19.697Z,1018.69
2019-06-01T08:18:19.799Z,1018.67
2019-06-01T08:19:19.765Z,1018.68
2019-06-01T08:20:19.802Z,1018.74
2019-06-01T08:21:19.836Z,1018.71
2019-06-01T08:22:19.868Z,1018.67
2019-06-01T08:24:20.007Z,1018.65
2019-06-01T08:25:19.973Z,1018.66
2019-06-01T08:26:20.197Z,1018.65
2019-06-01T08:27:20.073Z,1018.6
2019-06-01T08:28:20.077Z,1018.54
2019-06-01T08:29:20.112Z,1018.51
2019-06-01T08:30:20.149Z,1018.41
2019-06-01T08:31:20.181Z,1018.34
2019-06-01T08:32:20.218Z,1018.3
2019-06-01T08:33:20.250Z,1018.39
2019-06-01T08:34:20.285Z,1018.43
2019-06-01T08:35:20.320Z,1018.37
2019-06-01T08:36:20.354Z,1018.36
2019-06-01T08:37:20.389Z,1018.32
2019-06-01T08:38:20.423Z,1018.34
2019-06-01T08:40:20.493Z,1018.4
2019-06-01T08:41:20.526Z,1018.36
2019-06-01T08:42:20.561Z,1018.35
2019-06-01T08:43:20.596Z,1018.38
2019-06-01T08:44:20.630Z,1018.3
2019-06-01T08:45:20.664Z,1018.26
2019-06-01T08:46:20.699Z,1018.22
2019-06-01T08:47:20.733Z,1018.17
2019-06-01T08:48:20.767Z,1018.05
2019-06-01T08:49:20.801Z,1017.98
2019-06-01T08:50:20.839Z,1018.01
2019-06-01T08:51:20.874Z,1017.97
2019-06-01T08:52:20.906Z,1017.93
2019-06-01T08:53:20.939Z,1017.95
2019-06-01T08:54:20.973Z,1018.02
2019-06-01T08:56:21.903Z,1018.03
2019-06-01T08:57:21.077Z,1017.92
2019-06-01T08:58:21.110Z,1017.93
2019-06-01T08:59:21.147Z,1017.88
2019-06-01T09:00:21.178Z,1017.84
2019-06-01T09:01:21.210Z,1017.85
2019-06-01T09:02:21.244Z,1017.77
2019-06-01T09:03:21.279Z,1017.77
2019-06-01T09:04:21.312Z,1017.75
2019-06-01T09:05:24.701Z,1017.76
2019-06-01T09:06:21.380Z,1017.79
2019-06-01T09:07:21.422Z,1017.78
2019-06-01T09:08:23.678Z,1017.75
2019-06-01T09:09:21.514Z,1017.75
2019-06-01T09:10:21.513Z,1017.72
2019-06-01T09:12:21.579Z,1017.64
2019-06-01T09:13:21.612Z,1017.66
2019-06-01T09:14:21.645Z,1017.62
2019-06-01T09:15:21.683Z,1017.68
2019-06-01T09:16:21.714Z,1017.65
2019-06-01T09:17:21.745Z,1017.65
2019-06-01T09:18:21.785Z,1017.6
2019-06-01T09:19:21.812Z,1017.56
2019-06-01T09:20:21.847Z,1017.5
2019-06-01T09:21:21.878Z,1017.61
2019-06-01T09:22:21.911Z,1017.57
2019-06-01T09:23:21.944Z,1017.61
2019-06-01T09:24:22.067Z,1017.62
2019-06-01T09:25:22.021Z,1017.62
2019-06-01T09:27:22.077Z,1017.55
2019-06-01T09:28:22.110Z,1017.58
2019-06-01T09:29:22.143Z,1017.5
2019-06-01T09:30:22.176Z,1017.5
2019-06-01T09:31:22.209Z,1017.5
2019-06-01T09:32:22.245Z,1017.5
2019-06-01T09:33:22.275Z,1017.54
2019-06-01T09:34:22.308Z,1017.57
2019-06-01T09:35:22.339Z,1017.57
2019-06-01T09:36:22.374Z,1017.57
2019-06-01T09:37:22.405Z,1017.62
2019-06-01T09:38:22.438Z,1017.6
2019-06-01T09:39:22.470Z,1017.59
2019-06-01T09:40:22.502Z,1017.59
2019-06-01T09:41:22.540Z,1017.57
2019-06-01T09:42:22.568Z,1017.62
2019-06-01T09:43:22.599Z,1017.57
2019-06-01T09:44:22.633Z,1017.61
2019-06-01T09:45:22.668Z,1017.56
2019-06-01T09:46:22.697Z,1017.54
2019-06-01T09:47:22.730Z,1017.46
2019-06-01T09:48:22.762Z,1017.43
2019-06-01T09:49:22.795Z,1017.49
2019-06-01T09:50:22.827Z,1017.48
2019-06-01T09:51:22.860Z,1017.54
2019-06-01T09:52:22.893Z,1017.52
2019-06-01T09:53:22.925Z,1017.57
2019-06-01T09:54:22.959Z,1017.5
2019-06-01T09:55:22.992Z,1017.55
2019-06-01T09:56:23.021Z,1017.52
2019-06-01T09:57:23.053Z,1017.48
2019-06-01T09:59:23.117Z,1017.5
2019-06-01T10:00:23.150Z,1017.52
2019-06-01T10:01:23.182Z,1017.51
2019-06-01T10:02:23.215Z,1017.5
2019-06-01T10:03:23.245Z,1017.51
2019-06-01T10:04:23.278Z,1017.52
2019-06-01T10:05:23.311Z,1017.47
2019-06-01T10:06:23.341Z,1017.46
2019-06-01T10:07:23.373Z,1017.5
2019-06-01T10:08:23.406Z,1017.47
2019-06-01T10:09:23.436Z,1017.53
2019-06-01T10:10:23.470Z,1017.43
2019-06-01T10:11:23.501Z,1017.42
2019-06-01T10:12:23.531Z,1017.47
2019-06-01T10:13:23.566Z,1017.47
2019-06-01T10:15:23.628Z,1017.4
2019-06-01T10:16:23.662Z,1017.43
2019-06-01T10:17:23.705Z,1017.44
2019-06-01T10:18:26.851Z,1017.42
2019-06-01T10:19:23.755Z,1017.39
2019-06-01T10:20:23.789Z,1017.32
2019-06-01T10:21:23.824Z,1017.34
2019-06-01T10:22:23.853Z,1017.35
2019-06-01T10:23:23.885Z,1017.41
2019-06-01T10:24:23.918Z,1017.36
2019-06-01T10:25:23.961Z,1017.34
2019-06-01T10:26:23.982Z,1017.29
2019-06-01T10:27:24.013Z,1017.25
2019-06-01T10:28:24.046Z,1017.22
2019-06-01T10:29:24.095Z,1017.2
2019-06-01T10:31:24.145Z,1017.25
2019-06-01T10:32:24.174Z,1017.24
2019-06-01T10:33:24.207Z,1017.18
2019-06-01T10:34:24.239Z,1017.23
2019-06-01T10:35:24.271Z,1017.23
2019-06-01T10:36:24.303Z,1017.29
2019-06-01T10:37:24.336Z,1017.23
2019-06-01T10:38:24.379Z,1017.19
2019-06-01T10:39:24.399Z,1017.08
2019-06-01T10:40:24.434Z,1017.1
2019-06-01T10:41:24.462Z,1017.11
2019-06-01T10:42:24.495Z,1017.18
2019-06-01T10:43:24.532Z,1017.16
2019-06-01T10:44:24.558Z,1017.08
2019-06-01T10:45:24.590Z,1017.12
2019-06-01T10:47:24.654Z,1017.01
2019-06-01T10:48:24.687Z,1017
2019-06-01T10:49:24.718Z,1017.03
2019-06-01T10:50:24.748Z,1017
2019-06-01T10:51:24.781Z,1017
2019-06-01T10:52:24.810Z,1016.98
2019-06-01T10:53:24.843Z,1016.97
2019-06-01T10:54:24.872Z,1016.93
2019-06-01T10:55:24.904Z,1016.98
2019-06-01T10:56:24.934Z,1016.98
2019-06-01T10:57:24.965Z,1016.99
2019-06-01T10:58:24.997Z,1017.06
2019-06-01T10:59:25.028Z,1016.99
2019-06-01T11:00:37.400Z,1017.01
2019-06-01T11:02:25.128Z,1016.95
2019-06-01T11:03:25.152Z,1016.96
2019-06-01T11:04:25.182Z,1016.94
2019-06-01T11:05:25.214Z,1016.99
2019-06-01T11:06:36.567Z,1016.99
2019-06-01T11:07:25.276Z,1016.92
2019-06-01T11:08:25.305Z,1016.89
2019-06-01T11:09:25.339Z,1016.87
2019-06-01T11:10:25.367Z,1016.86
2019-06-01T11:11:25.396Z,1016.84
2019-06-01T11:12:25.427Z,1016.83
2019-06-01T11:13:25.457Z,1016.76
2019-06-01T11:14:25.486Z,1016.75
2019-06-01T11:15:25.516Z,1016.7
2019-06-01T11:16:25.547Z,1016.74
2019-06-01T11:17:25.578Z,1016.74
2019-06-01T11:18:25.607Z,1016.69
2019-06-01T11:19:25.636Z,1016.69
2019-06-01T11:20:25.667Z,1016.69
2019-06-01T11:21:25.702Z,1016.7
2019-06-01T11:22:25.726Z,1016.7
2019-06-01T11:23:25.759Z,1016.69
2019-06-01T11:24:25.787Z,1016.64
2019-06-01T11:25:25.818Z,1016.67
2019-06-01T11:26:25.896Z,1016.65
2019-06-01T11:27:25.876Z,1016.71
2019-06-01T11:28:25.906Z,1016.69
2019-06-01T11:29:25.935Z,1016.67
2019-06-01T11:30:25.966Z,1016.69
2019-06-01T11:31:25.998Z,1016.74
2019-06-01T11:32:26.024Z,1016.67
2019-06-01T11:34:26.088Z,1016.69
2019-06-01T11:35:26.116Z,1016.7
2019-06-01T11:36:26.143Z,1016.65
2019-06-01T11:37:26.174Z,1016.6
2019-06-01T11:38:26.204Z,1016.63
2019-06-01T11:39:26.234Z,1016.54
2019-06-01T11:40:26.262Z,1016.51
2019-06-01T11:41:26.300Z,1016.52
2019-06-01T11:42:26.322Z,1016.48
2019-06-01T11:43:26.352Z,1016.47
2019-06-01T11:44:26.381Z,1016.5
2019-06-01T11:45:26.411Z,1016.48
2019-06-01T11:46:26.440Z,1016.43
2019-06-01T11:47:26.472Z,1016.41
2019-06-01T11:48:26.501Z,1016.48
2019-06-01T11:50:26.559Z,1016.47
2019-06-01T11:51:26.590Z,1016.49
2019-06-01T11:52:26.618Z,1016.5
2019-06-01T11:53:26.649Z,1016.44
2019-06-01T11:54:26.678Z,1016.4
2019-06-01T11:55:26.708Z,1016.38
2019-06-01T11:56:26.736Z,1016.37
2019-06-01T11:57:26.767Z,1016.37
2019-06-01T11:58:26.795Z,1016.35
2019-06-01T11:59:26.826Z,1016.34
2019-06-01T12:00:26.854Z,1016.33
2019-06-01T12:01:26.888Z,1016.29
2019-06-01T12:02:26.913Z,1016.27
2019-06-01T12:03:26.943Z,1016.29
2019-06-01T12:04:26.972Z,1016.3
2019-06-01T12:06:27.031Z,1016.2
2019-06-01T12:07:27.060Z,1016.23
2019-06-01T12:08:27.092Z,1016.21
2019-06-01T12:09:27.119Z,1016.26
2019-06-01T12:10:27.148Z,1016.25
2019-06-01T12:11:27.180Z,1016.22
2019-06-01T12:12:27.209Z,1016.26
2019-06-01T12:13:27.240Z,1016.29
2019-06-01T12:14:27.266Z,1016.28
2019-06-01T12:15:27.383Z,1016.24
2019-06-01T12:16:27.324Z,1016.16
2019-06-01T12:17:27.362Z,1016.16
2019-06-01T12:18:27.383Z,1016.11
2019-06-01T12:19:27.413Z,1016.23
2019-06-01T12:20:27.442Z,1016.18
2019-06-01T12:22:27.500Z,1016.12
2019-06-01T12:23:27.531Z,1016.14
2019-06-01T12:24:27.559Z,1015.99
2019-06-01T12:25:27.588Z,1016.07
2019-06-01T12:26:27.619Z,1016.04
2019-06-01T12:27:27.647Z,1016.01
2019-06-01T12:28:27.679Z,1015.9
2019-06-01T12:29:27.711Z,1015.92
2019-06-01T12:30:27.737Z,1015.92
2019-06-01T12:31:27.777Z,1015.92
2019-06-01T12:32:27.794Z,1015.81
2019-06-01T12:33:27.823Z,1015.87
2019-06-01T12:34:27.851Z,1015.84
2019-06-01T12:35:27.883Z,1015.84
2019-06-01T12:38:21.298Z,1015.79
2019-06-01T12:38:46.918Z,1015.75
2019-06-01T12:39:51.168Z,1015.79
2019-06-01T12:40:47.392Z,1015.74
2019-06-01T12:41:47.754Z,1015.7
2019-06-01T12:42:47.721Z,1015.65
2019-06-01T12:43:47.734Z,1015.71
2019-06-01T12:44:47.815Z,1015.63
2019-06-01T12:45:47.867Z,1015.69
2019-06-01T12:46:47.275Z,1015.68
2019-06-01T12:47:49.385Z,1015.69
2019-06-01T12:48:48.257Z,1015.66
2019-06-01T12:49:48.255Z,1015.62